sensor_id;sensor_type;location;lat;lon;timestamp;pressure;altitude;pressure_sealevel;temperature;humidity
48015;BME280;33780;51.034;7.120;2023-04-23T00:00:45;100027.38;;;14.84;69.13
48015;BME280;33780;51.034;7.120;2023-04-23T00:03:13;100024.00;;;14.82;69.29
48015;BME280;33780;51.034;7.120;2023-04-23T00:05:39;100016.09;;;14.80;69.30
48015;BME280;33780;51.034;7.120;2023-04-23T00:08:06;100018.97;;;14.79;69.04
48015;BME280;33780;51.034;7.120;2023-04-23T00:10:32;100014.59;;;14.78;68.88
48015;BME280;33780;51.034;7.120;2023-04-23T00:12:57;100019.50;;;14.74;69.15
48015;BME280;33780;51.034;7.120;2023-04-23T00:15:23;100018.84;;;14.72;69.25
48015;BME280;33780;51.034;7.120;2023-04-23T00:17:48;100019.19;;;14.69;69.07
48015;BME280;33780;51.034;7.120;2023-04-23T00:20:14;100020.38;;;14.67;69.34
48015;BME280;33780;51.034;7.120;2023-04-23T00:22:41;100016.19;;;14.64;69.40
48015;BME280;33780;51.034;7.120;2023-04-23T00:25:07;100013.66;;;14.63;69.60
48015;BME280;33780;51.034;7.120;2023-04-23T00:27:32;100009.47;;;14.60;69.49
48015;BME280;33780;51.034;7.120;2023-04-23T00:29:57;100022.09;;;14.60;69.60
48015;BME280;33780;51.034;7.120;2023-04-23T00:32:23;100018.91;;;14.56;69.57
48015;BME280;33780;51.034;7.120;2023-04-23T00:34:48;100022.78;;;14.54;70.26
48015;BME280;33780;51.034;7.120;2023-04-23T00:37:13;100013.19;;;14.51;69.84
48015;BME280;33780;51.034;7.120;2023-04-23T00:39:39;100003.63;;;14.48;69.85
48015;BME280;33780;51.034;7.120;2023-04-23T00:42:05;100003.97;;;14.45;69.81
48015;BME280;33780;51.034;7.120;2023-04-23T00:44:37;100015.75;;;14.44;69.98
48015;BME280;33780;51.034;7.120;2023-04-23T00:47:04;100009.69;;;14.42;69.97
48015;BME280;33780;51.034;7.120;2023-04-23T00:49:30;99994.53;;;14.41;70.25
48015;BME280;33780;51.034;7.120;2023-04-23T00:51:55;100001.97;;;14.39;69.84
48015;BME280;33780;51.034;7.120;2023-04-23T00:54:21;99996.94;;;14.36;69.93
48015;BME280;33780;51.034;7.120;2023-04-23T00:56:47;100006.00;;;14.35;70.02
48015;BME280;33780;51.034;7.120;2023-04-23T00:59:13;100007.00;;;14.34;70.05
48015;BME280;33780;51.034;7.120;2023-04-23T01:01:38;100000.94;;;14.32;70.07
48015;BME280;33780;51.034;7.120;2023-04-23T01:04:05;100003.81;;;14.31;70.04
48015;BME280;33780;51.034;7.120;2023-04-23T01:06:30;100006.88;;;14.28;70.02
48015;BME280;33780;51.034;7.120;2023-04-23T01:08:56;100006.03;;;14.27;69.95
48015;BME280;33780;51.034;7.120;2023-04-23T01:11:21;100009.06;;;14.24;69.98
48015;BME280;33780;51.034;7.120;2023-04-23T01:13:47;100006.72;;;14.21;69.85
48015;BME280;33780;51.034;7.120;2023-04-23T01:16:12;99999.84;;;14.18;69.81
48015;BME280;33780;51.034;7.120;2023-04-23T01:18:37;100000.00;;;14.17;69.91
48015;BME280;33780;51.034;7.120;2023-04-23T01:21:05;99998.31;;;14.16;69.61
48015;BME280;33780;51.034;7.120;2023-04-23T01:23:31;100000.34;;;14.14;69.96
48015;BME280;33780;51.034;7.120;2023-04-23T01:25:56;100002.53;;;14.10;70.06
48015;BME280;33780;51.034;7.120;2023-04-23T01:28:23;99997.34;;;14.09;70.22
48015;BME280;33780;51.034;7.120;2023-04-23T01:30:48;100000.38;;;14.06;69.99
48015;BME280;33780;51.034;7.120;2023-04-23T01:33:15;100002.22;;;14.05;70.00
48015;BME280;33780;51.034;7.120;2023-04-23T01:35:42;100003.41;;;14.03;69.83
48015;BME280;33780;51.034;7.120;2023-04-23T01:38:09;99994.69;;;14.01;69.84
48015;BME280;33780;51.034;7.120;2023-04-23T01:40:35;100003.91;;;13.98;69.98
48015;BME280;33780;51.034;7.120;2023-04-23T01:43:01;100003.41;;;13.95;70.15
48015;BME280;33780;51.034;7.120;2023-04-23T01:45:26;100000.06;;;13.93;69.98
48015;BME280;33780;51.034;7.120;2023-04-23T01:47:52;100001.25;;;13.90;69.77
48015;BME280;33780;51.034;7.120;2023-04-23T01:50:18;100003.25;;;13.88;69.89
48015;BME280;33780;51.034;7.120;2023-04-23T01:52:45;100009.81;;;13.85;69.91
48015;BME280;33780;51.034;7.120;2023-04-23T01:55:10;100009.16;;;13.83;69.94
48015;BME280;33780;51.034;7.120;2023-04-23T01:57:36;100013.00;;;13.81;69.69
48015;BME280;33780;51.034;7.120;2023-04-23T02:00:12;100015.19;;;13.77;69.92
48015;BME280;33780;51.034;7.120;2023-04-23T02:02:39;100012.84;;;13.74;69.81
48015;BME280;33780;51.034;7.120;2023-04-23T02:05:11;100014.88;;;13.72;69.85
48015;BME280;33780;51.034;7.120;2023-04-23T02:07:36;100008.00;;;13.70;69.83
48015;BME280;33780;51.034;7.120;2023-04-23T02:10:02;100004.81;;;13.66;69.80
48015;BME280;33780;51.034;7.120;2023-04-23T02:12:28;99996.03;;;13.64;69.54
48015;BME280;33780;51.034;7.120;2023-04-23T02:14:53;99998.91;;;13.63;69.62
48015;BME280;33780;51.034;7.120;2023-04-23T02:17:19;100001.75;;;13.61;69.75
48015;BME280;33780;51.034;7.120;2023-04-23T02:19:45;100001.94;;;13.59;69.83
48015;BME280;33780;51.034;7.120;2023-04-23T02:22:11;100004.78;;;13.58;69.96
48015;BME280;33780;51.034;7.120;2023-04-23T02:24:36;100004.28;;;13.54;70.01
48015;BME280;33780;51.034;7.120;2023-04-23T02:27:03;100007.16;;;13.53;69.91
48015;BME280;33780;51.034;7.120;2023-04-23T02:29:28;99999.25;;;13.51;69.63
48015;BME280;33780;51.034;7.120;2023-04-23T02:31:53;100003.13;;;13.49;69.74
48015;BME280;33780;51.034;7.120;2023-04-23T02:34:19;100003.44;;;13.46;69.86
48015;BME280;33780;51.034;7.120;2023-04-23T02:36:44;100006.31;;;13.44;69.65
48015;BME280;33780;51.034;7.120;2023-04-23T02:39:09;100005.63;;;13.42;69.72
48015;BME280;33780;51.034;7.120;2023-04-23T02:41:35;100004.78;;;13.42;69.78
48015;BME280;33780;51.034;7.120;2023-04-23T02:44:00;100006.81;;;13.40;69.66
48015;BME280;33780;51.034;7.120;2023-04-23T02:46:25;100009.84;;;13.37;69.90
48015;BME280;33780;51.034;7.120;2023-04-23T02:48:50;100001.28;;;13.33;69.51
48015;BME280;33780;51.034;7.120;2023-04-23T02:51:16;99995.22;;;13.31;69.94
48015;BME280;33780;51.034;7.120;2023-04-23T02:53:42;100000.78;;;13.29;69.75
48015;BME280;33780;51.034;7.120;2023-04-23T02:56:07;100001.91;;;13.27;70.17
48015;BME280;33780;51.034;7.120;2023-04-23T02:58:32;99996.88;;;13.24;70.06
48015;BME280;33780;51.034;7.120;2023-04-23T03:00:58;99997.06;;;13.22;69.99
48015;BME280;33780;51.034;7.120;2023-04-23T03:03:25;99991.19;;;13.19;70.06
48015;BME280;33780;51.034;7.120;2023-04-23T03:05:51;99991.31;;;13.17;70.06
48015;BME280;33780;51.034;7.120;2023-04-23T03:08:17;99989.97;;;13.13;69.91
48015;BME280;33780;51.034;7.120;2023-04-23T03:10:42;99987.47;;;13.12;70.04
48015;BME280;33780;51.034;7.120;2023-04-23T03:13:08;99988.59;;;13.09;70.06
48015;BME280;33780;51.034;7.120;2023-04-23T03:15:33;99987.94;;;13.07;70.22
48015;BME280;33780;51.034;7.120;2023-04-23T03:17:59;99988.94;;;13.06;69.82
48015;BME280;33780;51.034;7.120;2023-04-23T03:20:26;99975.69;;;13.05;70.18
48015;BME280;33780;51.034;7.120;2023-04-23T03:22:51;99975.84;;;13.03;70.24
48015;BME280;33780;51.034;7.120;2023-04-23T03:25:16;99978.69;;;13.01;70.14
48015;BME280;33780;51.034;7.120;2023-04-23T03:27:41;99984.06;;;13.01;70.19
48015;BME280;33780;51.034;7.120;2023-04-23T03:30:08;99984.41;;;12.98;70.22
48015;BME280;33780;51.034;7.120;2023-04-23T03:32:35;99984.75;;;12.95;70.90
48015;BME280;33780;51.034;7.120;2023-04-23T03:35:00;99983.91;;;12.95;70.57
48015;BME280;33780;51.034;7.120;2023-04-23T03:37:26;99981.38;;;12.93;70.22
48015;BME280;33780;51.034;7.120;2023-04-23T03:39:51;99984.06;;;12.93;70.33
48015;BME280;33780;51.034;7.120;2023-04-23T03:42:17;99981.53;;;12.92;70.36
48015;BME280;33780;51.034;7.120;2023-04-23T03:44:42;99977.31;;;12.89;70.47
48015;BME280;33780;51.034;7.120;2023-04-23T03:47:07;99973.13;;;12.87;70.34
48015;BME280;33780;51.034;7.120;2023-04-23T03:49:33;99974.31;;;12.84;70.45
48015;BME280;33780;51.034;7.120;2023-04-23T03:51:58;99975.31;;;12.83;70.57
48015;BME280;33780;51.034;7.120;2023-04-23T03:54:23;99973.63;;;12.82;70.35
48015;BME280;33780;51.034;7.120;2023-04-23T03:56:50;99972.97;;;12.80;70.41
48015;BME280;33780;51.034;7.120;2023-04-23T03:59:15;99974.13;;;12.78;70.45
48015;BME280;33780;51.034;7.120;2023-04-23T04:01:41;99973.59;;;12.74;70.34
48015;BME280;33780;51.034;7.120;2023-04-23T04:04:07;99976.44;;;12.73;70.46
48015;BME280;33780;51.034;7.120;2023-04-23T04:06:32;99978.44;;;12.70;70.25
48015;BME280;33780;51.034;7.120;2023-04-23T04:08:57;99972.41;;;12.68;70.74
48015;BME280;33780;51.034;7.120;2023-04-23T04:11:22;99973.59;;;12.66;70.54
48015;BME280;33780;51.034;7.120;2023-04-23T04:13:48;99979.13;;;12.64;70.17
48015;BME280;33780;51.034;7.120;2023-04-23T04:16:13;99980.97;;;12.64;70.22
48015;BME280;33780;51.034;7.120;2023-04-23T04:18:38;99970.41;;;12.62;70.03
48015;BME280;33780;51.034;7.120;2023-04-23T04:21:04;99969.72;;;12.60;69.89
48015;BME280;33780;51.034;7.120;2023-04-23T04:23:29;99969.03;;;12.58;70.33
48015;BME280;33780;51.034;7.120;2023-04-23T04:25:55;99972.03;;;12.55;70.37
48015;BME280;33780;51.034;7.120;2023-04-23T04:28:21;99960.78;;;12.52;70.56
48015;BME280;33780;51.034;7.120;2023-04-23T04:30:49;99959.28;;;12.49;70.54
48015;BME280;33780;51.034;7.120;2023-04-23T04:33:14;99954.06;;;12.48;70.43
48015;BME280;33780;51.034;7.120;2023-04-23T04:35:40;99956.91;;;12.46;70.36
48015;BME280;33780;51.034;7.120;2023-04-23T04:38:06;99958.94;;;12.44;70.88
48015;BME280;33780;51.034;7.120;2023-04-23T04:40:33;99961.78;;;12.43;70.85
48015;BME280;33780;51.034;7.120;2023-04-23T04:42:58;99963.63;;;12.42;70.64
48015;BME280;33780;51.034;7.120;2023-04-23T04:45:24;99959.25;;;12.41;70.78
48015;BME280;33780;51.034;7.120;2023-04-23T04:47:49;99964.78;;;12.39;70.71
48015;BME280;33780;51.034;7.120;2023-04-23T04:50:15;99962.09;;;12.39;70.31
48015;BME280;33780;51.034;7.120;2023-04-23T04:52:41;99967.31;;;12.41;70.80
48015;BME280;33780;51.034;7.120;2023-04-23T04:55:06;99972.66;;;12.41;71.07
48015;BME280;33780;51.034;7.120;2023-04-23T04:57:32;99972.50;;;12.43;70.67
48015;BME280;33780;51.034;7.120;2023-04-23T04:59:57;99963.63;;;12.42;70.36
48015;BME280;33780;51.034;7.120;2023-04-23T05:02:22;99968.97;;;12.42;70.88
48015;BME280;33780;51.034;7.120;2023-04-23T05:04:48;99971.66;;;12.42;70.90
48015;BME280;33780;51.034;7.120;2023-04-23T05:07:13;99977.03;;;12.42;70.77
48015;BME280;33780;51.034;7.120;2023-04-23T05:09:39;99988.59;;;12.43;70.88
48015;BME280;33780;51.034;7.120;2023-04-23T05:12:04;99978.03;;;12.41;71.13
48015;BME280;33780;51.034;7.120;2023-04-23T05:14:31;99975.34;;;12.41;71.19
48015;BME280;33780;51.034;7.120;2023-04-23T05:16:57;99978.03;;;12.41;71.15
48015;BME280;33780;51.034;7.120;2023-04-23T05:19:24;99976.19;;;12.42;71.57
48015;BME280;33780;51.034;7.120;2023-04-23T05:21:50;99973.34;;;12.43;71.70
48015;BME280;33780;51.034;7.120;2023-04-23T05:24:15;99972.34;;;12.44;71.65
48015;BME280;33780;51.034;7.120;2023-04-23T05:26:40;99978.38;;;12.46;71.45
48015;BME280;33780;51.034;7.120;2023-04-23T05:29:06;99981.91;;;12.47;71.66
48015;BME280;33780;51.034;7.120;2023-04-23T05:31:31;99980.06;;;12.47;71.73
48015;BME280;33780;51.034;7.120;2023-04-23T05:33:57;99985.44;;;12.47;72.32
48015;BME280;33780;51.034;7.120;2023-04-23T05:36:22;99977.22;;;12.49;72.34
48015;BME280;33780;51.034;7.120;2023-04-23T05:38:47;99979.91;;;12.49;72.08
48015;BME280;33780;51.034;7.120;2023-04-23T05:41:13;99974.22;;;12.52;72.13
48015;BME280;33780;51.034;7.120;2023-04-23T05:43:39;99978.25;;;12.56;71.86
48015;BME280;33780;51.034;7.120;2023-04-23T05:46:04;99972.56;;;12.59;72.23
48015;BME280;33780;51.034;7.120;2023-04-23T05:48:31;99966.88;;;12.62;71.95
48015;BME280;33780;51.034;7.120;2023-04-23T05:50:57;99965.69;;;12.64;72.62
48015;BME280;33780;51.034;7.120;2023-04-23T05:53:22;99968.88;;;12.68;72.27
48015;BME280;33780;51.034;7.120;2023-04-23T05:55:47;99971.41;;;12.69;72.57
48015;BME280;33780;51.034;7.120;2023-04-23T05:58:13;99978.28;;;12.72;72.39
48015;BME280;33780;51.034;7.120;2023-04-23T06:00:38;99980.66;;;12.75;72.48
48015;BME280;33780;51.034;7.120;2023-04-23T06:03:04;99977.50;;;12.80;73.04
48015;BME280;33780;51.034;7.120;2023-04-23T06:05:30;99981.69;;;12.82;72.74
48015;BME280;33780;51.034;7.120;2023-04-23T06:07:55;99975.31;;;12.83;72.74
48015;BME280;33780;51.034;7.120;2023-04-23T06:10:20;99974.31;;;12.84;73.28
48015;BME280;33780;51.034;7.120;2023-04-23T06:12:46;99965.41;;;12.84;73.76
48015;BME280;33780;51.034;7.120;2023-04-23T06:15:11;99969.78;;;12.85;73.64
48015;BME280;33780;51.034;7.120;2023-04-23T06:17:36;99973.81;;;12.89;74.07
48015;BME280;33780;51.034;7.120;2023-04-23T06:20:03;99969.09;;;12.91;74.35
48015;BME280;33780;51.034;7.120;2023-04-23T06:22:29;99970.66;;;12.93;73.94
48015;BME280;33780;51.034;7.120;2023-04-23T06:24:55;99970.13;;;12.98;74.14
48015;BME280;33780;51.034;7.120;2023-04-23T06:27:20;99968.63;;;13.04;74.13
48015;BME280;33780;51.034;7.120;2023-04-23T06:29:45;99959.06;;;13.09;73.85
48015;BME280;33780;51.034;7.120;2023-04-23T06:32:11;99955.72;;;13.15;74.53
48015;BME280;33780;51.034;7.120;2023-04-23T06:34:36;99960.44;;;13.21;74.57
48015;BME280;33780;51.034;7.120;2023-04-23T06:37:01;99946.50;;;13.26;74.58
48015;BME280;33780;51.034;7.120;2023-04-23T06:39:26;99951.91;;;13.34;74.86
48015;BME280;33780;51.034;7.120;2023-04-23T06:41:52;99955.75;;;13.40;75.19
48015;BME280;33780;51.034;7.120;2023-04-23T06:44:17;99947.84;;;13.46;74.73
48015;BME280;33780;51.034;7.120;2023-04-23T06:46:42;99945.16;;;13.54;74.85
48015;BME280;33780;51.034;7.120;2023-04-23T06:49:08;99950.34;;;13.64;75.09
48015;BME280;33780;51.034;7.120;2023-04-23T06:51:33;99951.19;;;13.73;74.64
48015;BME280;33780;51.034;7.120;2023-04-23T06:53:58;99955.03;;;13.78;74.92
48015;BME280;33780;51.034;7.120;2023-04-23T06:56:24;99957.88;;;13.85;74.31
48015;BME280;33780;51.034;7.120;2023-04-23T06:58:50;99958.03;;;13.91;73.97
48015;BME280;33780;51.034;7.120;2023-04-23T07:01:16;99959.34;;;13.96;73.93
48015;BME280;33780;51.034;7.120;2023-04-23T07:03:41;99960.38;;;14.03;74.09
48015;BME280;33780;51.034;7.120;2023-04-23T07:06:09;99955.47;;;14.06;73.83
48015;BME280;33780;51.034;7.120;2023-04-23T07:08:34;99942.50;;;14.10;73.77
48015;BME280;33780;51.034;7.120;2023-04-23T07:11:00;99936.41;;;14.16;73.74
48015;BME280;33780;51.034;7.120;2023-04-23T07:13:26;99932.22;;;14.21;73.80
48015;BME280;33780;51.034;7.120;2023-04-23T07:15:52;99926.28;;;14.26;73.69
48015;BME280;33780;51.034;7.120;2023-04-23T07:18:17;99935.53;;;14.32;73.85
48015;BME280;33780;51.034;7.120;2023-04-23T07:20:42;99931.31;;;14.37;73.63
48015;BME280;33780;51.034;7.120;2023-04-23T07:23:08;99930.63;;;14.43;73.64
48015;BME280;33780;51.034;7.120;2023-04-23T07:25:33;99923.88;;;14.47;73.35
48015;BME280;33780;51.034;7.120;2023-04-23T07:27:58;99919.81;;;14.51;73.52
48015;BME280;33780;51.034;7.120;2023-04-23T07:30:24;99924.84;;;14.55;73.11
48015;BME280;33780;51.034;7.120;2023-04-23T07:32:50;99927.19;;;14.58;72.97
48015;BME280;33780;51.034;7.120;2023-04-23T07:35:16;99929.53;;;14.61;73.15
48015;BME280;33780;51.034;7.120;2023-04-23T07:37:41;99922.09;;;14.63;73.13
48015;BME280;33780;51.034;7.120;2023-04-23T07:40:07;99924.44;;;14.66;73.32
48015;BME280;33780;51.034;7.120;2023-04-23T07:42:33;99912.47;;;14.68;72.98
48015;BME280;33780;51.034;7.120;2023-04-23T07:44:58;99922.88;;;14.71;73.03
48015;BME280;33780;51.034;7.120;2023-04-23T07:47:24;99917.50;;;14.71;72.89
48015;BME280;33780;51.034;7.120;2023-04-23T07:49:52;99916.16;;;14.75;72.83
48015;BME280;33780;51.034;7.120;2023-04-23T07:52:17;99917.28;;;14.81;72.79
48015;BME280;33780;51.034;7.120;2023-04-23T07:54:43;99921.09;;;14.87;72.61
48015;BME280;33780;51.034;7.120;2023-04-23T07:57:08;99913.81;;;14.95;72.54
48015;BME280;33780;51.034;7.120;2023-04-23T07:59:35;99903.16;;;15.02;72.29
48015;BME280;33780;51.034;7.120;2023-04-23T08:02:02;99897.88;;;15.08;72.58
48015;BME280;33780;51.034;7.120;2023-04-23T08:04:28;99897.81;;;15.17;72.46
48015;BME280;33780;51.034;7.120;2023-04-23T08:06:53;99906.00;;;15.23;71.80
48015;BME280;33780;51.034;7.120;2023-04-23T08:09:18;99895.72;;;15.27;71.99
48015;BME280;33780;51.034;7.120;2023-04-23T08:11:44;99891.44;;;15.32;71.83
48015;BME280;33780;51.034;7.120;2023-04-23T08:14:09;99894.41;;;15.37;71.51
48015;BME280;33780;51.034;7.120;2023-04-23T08:16:38;99896.75;;;15.40;71.11
48015;BME280;33780;51.034;7.120;2023-04-23T08:19:08;99894.16;;;15.47;70.83
48015;BME280;33780;51.034;7.120;2023-04-23T08:21:36;99890.44;;;15.48;70.18
48015;BME280;33780;51.034;7.120;2023-04-23T08:24:01;99895.28;;;15.53;70.35
48015;BME280;33780;51.034;7.120;2023-04-23T08:26:27;99902.16;;;15.55;70.04
48015;BME280;33780;51.034;7.120;2023-04-23T08:28:52;99896.59;;;15.57;69.90
48015;BME280;33780;51.034;7.120;2023-04-23T08:31:18;99898.94;;;15.60;70.01
48015;BME280;33780;51.034;7.120;2023-04-23T08:33:43;99901.28;;;15.63;69.37
48015;BME280;33780;51.034;7.120;2023-04-23T08:36:09;99898.03;;;15.67;69.35
48015;BME280;33780;51.034;7.120;2023-04-23T08:38:34;99897.09;;;15.75;69.21
48015;BME280;33780;51.034;7.120;2023-04-23T08:41:00;99898.06;;;15.82;68.95
48015;BME280;33780;51.034;7.120;2023-04-23T08:43:43;99906.88;;;15.91;69.01
48015;BME280;33780;51.034;7.120;2023-04-23T08:46:11;99904.09;;;15.99;68.94
48015;BME280;33780;51.034;7.120;2023-04-23T08:48:39;99894.03;;;16.08;67.64
48015;BME280;33780;51.034;7.120;2023-04-23T08:51:08;99896.06;;;16.20;67.62
48015;BME280;33780;51.034;7.120;2023-04-23T08:53:33;99896.97;;;16.27;67.18
48015;BME280;33780;51.034;7.120;2023-04-23T08:56:00;99897.09;;;16.34;66.86
48015;BME280;33780;51.034;7.120;2023-04-23T08:58:27;99889.81;;;16.35;66.00
48015;BME280;33780;51.034;7.120;2023-04-23T09:00:54;99894.19;;;16.36;65.98
48015;BME280;33780;51.034;7.120;2023-04-23T09:03:22;99893.16;;;16.37;65.65
48015;BME280;33780;51.034;7.120;2023-04-23T09:05:48;99888.59;;;16.37;65.87
48015;BME280;33780;51.034;7.120;2023-04-23T09:08:14;99881.53;;;16.36;65.66
48015;BME280;33780;51.034;7.120;2023-04-23T09:10:41;99874.25;;;16.37;65.77
48015;BME280;33780;51.034;7.120;2023-04-23T09:13:07;99873.03;;;16.39;65.78
48015;BME280;33780;51.034;7.120;2023-04-23T09:15:33;99873.47;;;16.43;65.79
48015;BME280;33780;51.034;7.120;2023-04-23T09:18:02;99876.00;;;16.44;64.59
48015;BME280;33780;51.034;7.120;2023-04-23T09:20:28;99865.00;;;16.46;65.12
48015;BME280;33780;51.034;7.120;2023-04-23T09:22:53;99865.09;;;16.52;64.86
48015;BME280;33780;51.034;7.120;2023-04-23T09:25:21;99860.19;;;16.62;65.08
48015;BME280;33780;51.034;7.120;2023-04-23T09:27:51;99857.88;;;16.74;65.52
48015;BME280;33780;51.034;7.120;2023-04-23T09:30:17;99862.94;;;16.84;64.41
48015;BME280;33780;51.034;7.120;2023-04-23T09:32:44;99849.31;;;16.92;64.05
48015;BME280;33780;51.034;7.120;2023-04-23T09:35:17;99839.81;;;17.03;64.08
48015;BME280;33780;51.034;7.120;2023-04-23T09:37:48;99848.56;;;17.05;64.32
48015;BME280;33780;51.034;7.120;2023-04-23T09:40:19;99846.69;;;17.05;63.78
48015;BME280;33780;51.034;7.120;2023-04-23T09:42:48;99845.03;;;17.04;63.50
48015;BME280;33780;51.034;7.120;2023-04-23T09:45:15;99839.81;;;17.03;63.03
48015;BME280;33780;51.034;7.120;2023-04-23T09:47:47;99846.44;;;17.00;62.33
48015;BME280;33780;51.034;7.120;2023-04-23T09:50:13;99830.00;;;16.95;62.45
48015;BME280;33780;51.034;7.120;2023-04-23T09:52:38;99826.22;;;16.89;62.51
48015;BME280;33780;51.034;7.120;2023-04-23T09:55:04;99830.78;;;16.89;62.72
48015;BME280;33780;51.034;7.120;2023-04-23T09:57:35;99824.34;;;16.90;62.95
48015;BME280;33780;51.034;7.120;2023-04-23T10:00:15;99819.38;;;16.94;62.79
48015;BME280;33780;51.034;7.120;2023-04-23T10:02:45;99815.03;;;16.99;61.57
48015;BME280;33780;51.034;7.120;2023-04-23T10:05:16;99812.22;;;17.07;61.12
48015;BME280;33780;51.034;7.120;2023-04-23T10:07:43;99811.03;;;17.16;60.60
48015;BME280;33780;51.034;7.120;2023-04-23T10:10:10;99797.53;;;17.23;60.13
48015;BME280;33780;51.034;7.120;2023-04-23T10:12:35;99798.66;;;17.29;59.17
48015;BME280;33780;51.034;7.120;2023-04-23T10:15:03;99807.19;;;17.32;59.48
48015;BME280;33780;51.034;7.120;2023-04-23T10:17:29;99799.91;;;17.33;56.72
48015;BME280;33780;51.034;7.120;2023-04-23T10:19:55;99801.81;;;17.39;58.46
48015;BME280;33780;51.034;7.120;2023-04-23T10:22:22;99801.03;;;17.45;57.21
48015;BME280;33780;51.034;7.120;2023-04-23T10:24:52;99807.72;;;17.49;57.07
48015;BME280;33780;51.034;7.120;2023-04-23T10:27:25;99803.56;;;17.53;56.80
48015;BME280;33780;51.034;7.120;2023-04-23T10:29:52;99810.03;;;17.59;56.55
48015;BME280;33780;51.034;7.120;2023-04-23T10:32:19;99809.66;;;17.62;56.46
48015;BME280;33780;51.034;7.120;2023-04-23T10:34:45;99804.91;;;17.64;55.98
48015;BME280;33780;51.034;7.120;2023-04-23T10:37:11;99799.91;;;17.67;55.98
48015;BME280;33780;51.034;7.120;2023-04-23T10:39:37;99801.41;;;17.70;55.66
48015;BME280;33780;51.034;7.120;2023-04-23T10:42:03;99796.63;;;17.72;53.67
48015;BME280;33780;51.034;7.120;2023-04-23T10:44:35;99792.06;;;17.72;53.78
48015;BME280;33780;51.034;7.120;2023-04-23T10:47:01;99792.31;;;17.77;52.80
48015;BME280;33780;51.034;7.120;2023-04-23T10:49:33;99785.88;;;17.85;52.09
48015;BME280;33780;51.034;7.120;2023-04-23T10:52:06;99784.84;;;17.93;53.15
48015;BME280;33780;51.034;7.120;2023-04-23T10:54:33;99779.28;;;18.01;53.28
48015;BME280;33780;51.034;7.120;2023-04-23T10:57:00;99774.91;;;18.06;52.34
48015;BME280;33780;51.034;7.120;2023-04-23T10:59:28;99768.03;;;18.10;52.07
48015;BME280;33780;51.034;7.120;2023-04-23T11:01:56;99772.00;;;18.08;52.24
48015;BME280;33780;51.034;7.120;2023-04-23T11:04:26;99767.22;;;18.10;51.27
48015;BME280;33780;51.034;7.120;2023-04-23T11:07:07;99766.38;;;18.09;51.87
48015;BME280;33780;51.034;7.120;2023-04-23T11:09:42;99768.25;;;18.09;50.86
48015;BME280;33780;51.034;7.120;2023-04-23T11:14:50;99759.97;;;18.17;49.91
48015;BME280;33780;51.034;7.120;2023-04-23T11:17:17;99750.59;;;18.20;50.50
48015;BME280;33780;51.034;7.120;2023-04-23T11:22:48;99759.38;;;18.35;49.08
48015;BME280;33780;51.034;7.120;2023-04-23T11:25:18;99743.94;;;18.42;48.99
48015;BME280;33780;51.034;7.120;2023-04-23T11:27:46;99745.00;;;18.48;47.88
48015;BME280;33780;51.034;7.120;2023-04-23T11:32:43;99732.09;;;18.50;48.05
48015;BME280;33780;51.034;7.120;2023-04-23T11:35:11;99730.84;;;18.52;48.05
48015;BME280;33780;51.034;7.120;2023-04-23T11:37:38;99734.38;;;18.53;48.79
48015;BME280;33780;51.034;7.120;2023-04-23T11:40:06;99732.50;;;18.53;48.27
48015;BME280;33780;51.034;7.120;2023-04-23T11:42:51;99722.72;;;18.52;48.70
48015;BME280;33780;51.034;7.120;2023-04-23T11:45:23;99728.34;;;18.51;48.45
48015;BME280;33780;51.034;7.120;2023-04-23T11:47:50;99730.59;;;18.47;48.79
48015;BME280;33780;51.034;7.120;2023-04-23T11:50:21;99726.22;;;18.46;49.11
48015;BME280;33780;51.034;7.120;2023-04-23T11:52:47;99728.94;;;18.39;50.35
48015;BME280;33780;51.034;7.120;2023-04-23T11:55:13;99714.16;;;18.35;51.24
48015;BME280;33780;51.034;7.120;2023-04-23T11:57:43;99713.31;;;18.35;51.45
48015;BME280;33780;51.034;7.120;2023-04-23T12:00:16;99708.72;;;18.35;51.64
48015;BME280;33780;51.034;7.120;2023-04-23T12:02:57;99703.31;;;18.42;51.38
48015;BME280;33780;51.034;7.120;2023-04-23T12:05:34;99695.00;;;18.50;51.53
48015;BME280;33780;51.034;7.120;2023-04-23T12:08:16;99687.25;;;18.60;51.47
48015;BME280;33780;51.034;7.120;2023-04-23T12:10:44;99684.56;;;18.67;51.43
48015;BME280;33780;51.034;7.120;2023-04-23T12:13:26;99683.34;;;18.69;49.78
48015;BME280;33780;51.034;7.120;2023-04-23T12:15:54;99662.28;;;18.71;49.36
48015;BME280;33780;51.034;7.120;2023-04-23T12:18:29;99664.34;;;18.76;48.57
48015;BME280;33780;51.034;7.120;2023-04-23T12:20:56;99674.34;;;18.89;48.21
48015;BME280;33780;51.034;7.120;2023-04-23T12:23:29;99653.66;;;19.01;46.42
48015;BME280;33780;51.034;7.120;2023-04-23T12:25:57;99650.34;;;19.06;46.62
48015;BME280;33780;51.034;7.120;2023-04-23T12:28:22;99652.81;;;19.07;46.58
48015;BME280;33780;51.034;7.120;2023-04-23T12:30:48;99651.97;;;19.13;46.83
48015;BME280;33780;51.034;7.120;2023-04-23T12:33:14;99650.28;;;19.19;45.33
48015;BME280;33780;51.034;7.120;2023-04-23T12:35:43;99653.81;;;19.26;45.94
48015;BME280;33780;51.034;7.120;2023-04-23T12:38:26;99640.59;;;19.36;45.20
48015;BME280;33780;51.034;7.120;2023-04-23T12:40:57;99651.44;;;19.43;45.12
48015;BME280;33780;51.034;7.120;2023-04-23T12:43:24;99649.75;;;19.48;44.42
48015;BME280;33780;51.034;7.120;2023-04-23T12:45:50;99642.66;;;19.54;44.68
48015;BME280;33780;51.034;7.120;2023-04-23T12:48:16;99637.66;;;19.57;43.35
48015;BME280;33780;51.034;7.120;2023-04-23T12:50:43;99641.97;;;19.65;42.82
48015;BME280;33780;51.034;7.120;2023-04-23T12:53:10;99636.72;;;19.70;42.60
48015;BME280;33780;51.034;7.120;2023-04-23T12:55:35;99635.44;;;19.79;41.91
48015;BME280;33780;51.034;7.120;2023-04-23T12:58:03;99642.06;;;19.83;41.88
48015;BME280;33780;51.034;7.120;2023-04-23T13:00:28;99619.69;;;19.88;41.50
48015;BME280;33780;51.034;7.120;2023-04-23T13:02:54;99616.75;;;19.89;40.95